Time;durP1;ratioP1;P1;durP2;ratioP2;P2;SDS_P1;SDS_P2;PMS_P1;PMS_P2;Temp;Humidity;BMP_temperature;BMP_pressure;BME280_temperature;BME280_humidity;BME280_pressure;Samples;Min_cycle;Max_cycle;Signal;HPM_P1;HPM_P2
2021/10/01 00:01:19;;;;;;;22.00;13.68;;;9.00;71.00;;;;;;5055351;28;20083;-37
2021/10/01 00:03:45;;;;;;;23.23;12.68;;;8.90;70.80;;;;;;5055575;28;20032;-40
2021/10/01 00:06:10;;;;;;;35.10;14.85;;;8.90;71.00;;;;;;5054756;28;20021;-40
2021/10/01 00:08:36;;;;;;;25.73;14.60;;;8.90;71.00;;;;;;5055639;28;20033;-40
2021/10/01 00:11:02;;;;;;;37.08;16.77;;;8.90;71.10;;;;;;5058495;28;20025;-41
2021/10/01 00:13:28;;;;;;;39.75;17.77;;;8.90;71.10;;;;;;5059526;28;20429;-37
2021/10/01 00:15:54;;;;;;;30.92;14.80;;;8.90;71.10;;;;;;5058792;28;20025;-38
2021/10/01 00:18:20;;;;;;;22.92;14.25;;;8.80;70.90;;;;;;5059607;28;20055;-37
2021/10/01 00:20:46;;;;;;;27.85;15.20;;;8.80;70.90;;;;;;5058872;28;20108;-40
2021/10/01 00:23:12;;;;;;;25.10;15.07;;;8.80;70.90;;;;;;5058979;28;20151;-37
2021/10/01 00:25:37;;;;;;;29.00;16.35;;;8.80;70.90;;;;;;5059078;28;20485;-40
2021/10/01 00:28:03;;;;;;;28.02;15.93;;;8.80;71.00;;;;;;5058965;28;20319;-39
2021/10/01 00:30:29;;;;;;;31.55;16.27;;;8.80;70.90;;;;;;5059012;28;20024;-39
2021/10/01 00:32:55;;;;;;;27.88;15.07;;;8.80;70.90;;;;;;5058867;28;20108;-37
2021/10/01 00:35:21;;;;;;;28.60;15.63;;;8.80;70.90;;;;;;5059100;28;20078;-40
2021/10/01 00:37:47;;;;;;;63.15;17.80;;;8.70;70.80;;;;;;5058521;28;20033;-37
2021/10/01 00:40:13;;;;;;;35.03;16.77;;;8.70;70.90;;;;;;5058905;28;20082;-40
2021/10/01 00:42:39;;;;;;;35.08;15.38;;;8.70;71.00;;;;;;5058650;28;20021;-37
2021/10/01 00:45:06;;;;;;;31.05;16.00;;;8.70;71.00;;;;;;5058719;28;20774;-37
2021/10/01 00:47:32;;;;;;;26.38;14.15;;;8.70;71.10;;;;;;5058534;28;20033;-39
2021/10/01 00:49:57;;;;;;;29.17;15.52;;;8.70;71.00;;;;;;5058921;28;20078;-39
2021/10/01 00:52:23;;;;;;;27.67;15.68;;;8.70;71.00;;;;;;5058373;28;20111;-38
2021/10/01 00:54:49;;;;;;;23.33;13.98;;;8.70;70.90;;;;;;5058499;28;20040;-37
2021/10/01 00:57:15;;;;;;;22.25;13.77;;;8.70;70.90;;;;;;5058532;28;20045;-39
2021/10/01 00:59:41;;;;;;;24.85;14.40;;;8.70;70.90;;;;;;5058522;28;20321;-37
2021/10/01 01:02:07;;;;;;;20.15;12.50;;;8.70;70.90;;;;;;5058397;28;20029;-37
2021/10/01 01:04:33;;;;;;;22.23;13.90;;;8.60;70.90;;;;;;5058170;28;20384;-38
2021/10/01 01:07:27;;;;;;;17.85;12.43;;;8.60;70.90;;;;;;5057881;28;20025;-37
2021/10/01 01:10:18;;;;;;;27.52;13.40;;;8.60;70.80;;;;;;5058575;28;20029;-40
2021/10/01 01:13:02;;;;;;;;;;;8.60;70.80;;;;;;5058299;28;20029;-40
2021/10/01 01:15:31;;;;;;;18.17;10.25;;;8.50;70.70;;;;;;5057667;28;19916;-37
2021/10/01 01:17:59;;;;;;;27.02;12.60;;;8.50;70.90;;;;;;5057887;28;20429;-40
2021/10/01 01:20:48;;;;;;;26.08;12.52;;;8.50;71.00;;;;;;5057719;28;20025;-37
2021/10/01 01:23:28;;;;;;;22.42;11.90;;;8.50;71.00;;;;;;5058384;28;20030;-37
2021/10/01 01:26:03;;;;;;;24.37;12.33;;;8.50;71.00;;;;;;5057426;28;20025;-37
2021/10/01 01:28:37;;;;;;;19.10;11.43;;;8.50;71.20;;;;;;5058282;28;20618;-40
2021/10/01 01:31:15;;;;;;;18.50;10.55;;;8.50;71.20;;;;;;5057453;28;20349;-37
2021/10/01 01:33:42;;;;;;;18.35;12.23;;;8.40;71.10;;;;;;5058018;28;20098;-37
2021/10/01 01:36:10;;;;;;;18.25;11.50;;;8.40;71.10;;;;;;5057584;28;20040;-38
2021/10/01 01:38:42;;;;;;;25.38;12.05;;;8.40;71.00;;;;;;5057626;28;20033;-43
2021/10/01 01:41:10;;;;;;;18.55;11.95;;;8.40;71.00;;;;;;5057504;28;20416;-40
2021/10/01 01:43:38;;;;;;;21.65;13.05;;;8.40;71.10;;;;;;5057437;28;20041;-39
2021/10/01 01:46:04;;;;;;;18.85;11.88;;;8.40;71.20;;;;;;5057394;28;20348;-37
2021/10/01 01:48:31;;;;;;;20.60;12.88;;;8.40;71.20;;;;;;5057746;28;20035;-37
2021/10/01 01:50:58;;;;;;;18.08;11.82;;;8.40;71.70;;;;;;5057040;28;20029;-39
2021/10/01 01:53:25;;;;;;;27.35;12.30;;;8.40;71.20;;;;;;5057418;28;20214;-38
2021/10/01 01:55:51;;;;;;;24.90;12.75;;;8.40;71.20;;;;;;5056905;28;20104;-39
2021/10/01 01:58:18;;;;;;;22.08;13.20;;;8.40;71.20;;;;;;5057489;28;20218;-37
2021/10/01 02:00:46;;;;;;;17.33;11.20;;;8.40;71.10;;;;;;5057550;28;20031;-39
2021/10/01 02:03:14;;;;;;;17.30;12.18;;;8.40;71.20;;;;;;5057212;28;20112;-38
2021/10/01 02:05:41;;;;;;;14.75;10.82;;;8.40;71.10;;;;;;5056870;28;20028;-37
2021/10/01 02:08:08;;;;;;;16.30;11.50;;;8.40;71.20;;;;;;5056864;28;20037;-36
2021/10/01 02:10:37;;;;;;;22.10;12.93;;;8.30;71.20;;;;;;5057126;28;20044;-40
2021/10/01 02:13:07;;;;;;;24.73;13.18;;;8.30;71.10;;;;;;5057048;28;20037;-37
2021/10/01 02:15:34;;;;;;;21.73;12.00;;;8.30;71.10;;;;;;5056770;28;20029;-37
2021/10/01 02:18:02;;;;;;;22.73;12.68;;;8.30;71.10;;;;;;5056778;28;20041;-37
2021/10/01 02:20:31;;;;;;;19.25;10.57;;;8.30;71.20;;;;;;5056780;28;20033;-37
2021/10/01 02:22:57;;;;;;;25.92;11.90;;;8.30;71.20;;;;;;5056819;28;20041;-37
2021/10/01 02:28:14;;;;;;;29.27;13.13;;;8.30;71.30;;;;;;5056702;28;20124;-37
2021/10/01 02:30:41;;;;;;;27.17;13.18;;;8.30;71.30;;;;;;5056931;28;20029;-37
2021/10/01 02:33:19;;;;;;;28.33;12.13;;;8.20;71.30;;;;;;5055822;28;20040;-38
2021/10/01 02:35:45;;;;;;;23.48;11.55;;;8.30;71.30;;;;;;5056380;28;20413;-37
2021/10/01 02:38:11;;;;;;;28.85;12.75;;;8.30;71.30;;;;;;5056451;28;20094;-40
2021/10/01 02:40:37;;;;;;;40.63;13.38;;;8.20;71.20;;;;;;5056775;28;20048;-38
2021/10/01 02:43:02;;;;;;;28.02;12.05;;;8.20;71.30;;;;;;5056449;28;20436;-37
2021/10/01 02:45:28;;;;;;;23.85;12.52;;;8.20;71.40;;;;;;5056275;28;20378;-38
2021/10/01 02:47:54;;;;;;;39.90;13.63;;;8.20;71.40;;;;;;5056257;28;20041;-37
2021/10/01 02:50:21;;;;;;;36.40;15.55;;;8.20;71.40;;;;;;5056156;28;20035;-39
2021/10/01 02:52:52;;;;;;;33.10;13.38;;;8.20;71.50;;;;;;5055716;28;20124;-38
2021/10/01 02:55:24;;;;;;;57.88;14.93;;;8.20;71.60;;;;;;5056476;28;20031;-37
2021/10/01 02:58:28;;;;;;;39.50;13.77;;;8.20;71.60;;;;;;5056027;28;20044;-38
2021/10/01 03:00:55;;;;;;;44.17;19.77;;;8.20;71.60;;;;;;5055454;28;20036;-37
2021/10/01 03:03:24;;;;;;;48.35;21.02;;;8.20;71.70;;;;;;5056478;28;20029;-37
2021/10/01 03:05:54;;;;;;;29.33;15.98;;;8.20;71.70;;;;;;5055671;28;20021;-40
2021/10/01 03:08:21;;;;;;;;;;;8.10;71.60;;;;;;5056614;28;20114;-40
2021/10/01 03:10:49;;;;;;;35.42;16.15;;;8.20;71.40;;;;;;5055721;28;20035;-40
2021/10/01 03:13:18;;;;;;;31.35;14.50;;;8.20;71.60;;;;;;5056043;28;20033;-37
2021/10/01 03:15:45;;;;;;;27.98;15.52;;;8.10;71.70;;;;;;5055857;28;20337;-37
2021/10/01 03:18:11;;;;;;;30.05;15.63;;;8.20;71.80;;;;;;5056022;28;20356;-39
2021/10/01 03:20:37;;;;;;;24.20;14.48;;;8.20;71.60;;;;;;5055601;28;20021;-40
2021/10/01 03:23:03;;;;;;;27.73;12.68;;;8.20;71.70;;;;;;5055760;28;20044;-37
2021/10/01 03:25:29;;;;;;;30.27;15.13;;;8.10;71.70;;;;;;5055342;28;20115;-37
2021/10/01 03:27:55;;;;;;;22.23;12.95;;;8.20;71.80;;;;;;5055497;28;20033;-40
2021/10/01 03:30:21;;;;;;;24.92;12.55;;;8.20;71.70;;;;;;5055269;28;20025;-39
2021/10/01 03:32:47;;;;;;;35.25;14.48;;;8.10;71.70;;;;;;5055795;28;20059;-37
2021/10/01 03:35:15;;;;;;;37.22;13.63;;;8.10;71.70;;;;;;5055762;28;20021;-38
2021/10/01 03:37:42;;;;;;;37.05;13.73;;;8.10;71.80;;;;;;5055175;28;20376;-40
2021/10/01 03:40:11;;;;;;;29.80;14.35;;;8.10;71.80;;;;;;5055601;28;20108;-40
2021/10/01 03:42:37;;;;;;;25.90;13.68;;;8.10;72.30;;;;;;5055203;28;20029;-40
2021/10/01 03:45:05;;;;;;;22.70;13.13;;;8.10;71.80;;;;;;5055175;28;20029;-37
2021/10/01 03:47:31;;;;;;;34.65;15.77;;;8.10;71.90;;;;;;5055359;28;20329;-37
2021/10/01 03:49:56;;;;;;;27.80;13.23;;;8.10;72.00;;;;;;5055417;28;20029;-39
2021/10/01 03:52:22;;;;;;;30.23;14.32;;;8.10;71.90;;;;;;5055018;28;20290;-40
2021/10/01 03:54:50;;;;;;;34.75;15.10;;;8.10;71.80;;;;;;5055914;28;20025;-37
2021/10/01 03:57:16;;;;;;;29.15;14.50;;;8.10;71.90;;;;;;5055277;28;20037;-37
2021/10/01 03:59:42;;;;;;;25.20;14.07;;;8.10;71.90;;;;;;5055182;28;20040;-37
2021/10/01 04:02:07;;;;;;;22.45;12.77;;;8.10;72.00;;;;;;5054886;28;20021;-37
2021/10/01 04:04:33;;;;;;;44.38;13.05;;;8.10;72.00;;;;;;5055065;28;20075;-37
2021/10/01 04:07:00;;;;;;;47.10;16.75;;;8.10;71.90;;;;;;5055224;28;20120;-37
2021/10/01 04:09:26;;;;;;;53.58;15.45;;;8.10;71.90;;;;;;5055285;28;20099;-37
2021/10/01 04:11:53;;;;;;;30.20;14.10;;;8.10;71.90;;;;;;5054933;28;20029;-37
2021/10/01 04:14:20;;;;;;;47.72;18.55;;;8.10;72.00;;;;;;5054969;28;20068;-40
2021/10/01 04:16:46;;;;;;;54.90;19.02;;;8.10;72.00;;;;;;5054892;28;20025;-38
2021/10/01 04:19:12;;;;;;;32.80;17.67;;;8.10;72.00;;;;;;5055281;28;20097;-40
2021/10/01 04:21:37;;;;;;;53.53;17.88;;;8.10;72.20;;;;;;5055146;28;20416;-41
2021/10/01 04:24:03;;;;;;;43.10;15.23;;;8.10;72.20;;;;;;5055138;28;20040;-37
2021/10/01 04:26:29;;;;;;;36.53;15.30;;;8.10;72.40;;;;;;5054964;28;20029;-38
2021/10/01 04:28:55;;;;;;;57.20;17.40;;;8.10;72.50;;;;;;5055295;28;20033;-38
2021/10/01 04:31:20;;;;;;;100.35;21.30;;;8.10;72.60;;;;;;5055173;28;20040;-42
2021/10/01 04:33:46;;;;;;;64.15;18.83;;;8.10;72.70;;;;;;5055132;28;20044;-40
2021/10/01 04:36:12;;;;;;;72.53;19.10;;;8.10;72.80;;;;;;5054842;28;20405;-41
2021/10/01 04:38:40;;;;;;;62.88;19.95;;;8.10;72.90;;;;;;5054945;28;20029;-38
2021/10/01 04:41:06;;;;;;;59.00;17.50;;;8.20;73.20;;;;;;5054490;28;20087;-40
2021/10/01 04:43:32;;;;;;;82.88;20.63;;;8.20;73.20;;;;;;5055200;28;20033;-37
2021/10/01 04:45:58;;;;;;;86.53;29.33;;;8.20;73.30;;;;;;5054095;28;20091;-36
2021/10/01 04:48:24;;;;;;;69.55;22.35;;;8.20;73.50;;;;;;5054917;28;20043;-40
2021/10/01 04:50:49;;;;;;;116.40;25.45;;;8.30;73.60;;;;;;5054341;28;20413;-39
2021/10/01 04:53:15;;;;;;;327.98;40.28;;;8.40;73.90;;;;;;5054289;28;20057;-40
2021/10/01 04:55:41;;;;;;;111.95;21.98;;;8.40;74.00;;;;;;5055672;28;20056;-41
2021/10/01 04:58:07;;;;;;;119.90;23.00;;;8.50;74.10;;;;;;5058090;28;20041;-40
2021/10/01 05:00:34;;;;;;;86.13;20.25;;;8.60;74.40;;;;;;5058042;28;20048;-40
2021/10/01 05:03:00;;;;;;;73.28;20.33;;;8.60;74.60;;;;;;5058375;28;20116;-38
2021/10/01 05:05:26;;;;;;;58.50;18.00;;;8.70;74.60;;;;;;5058096;28;20041;-39
2021/10/01 05:07:52;;;;;;;30.58;14.05;;;8.80;74.90;;;;;;5057599;28;20037;-39
2021/10/01 05:10:18;;;;;;;37.83;16.60;;;8.80;75.00;;;;;;5058215;28;20029;-38
2021/10/01 05:12:44;;;;;;;30.58;14.65;;;9.00;75.50;;;;;;5058017;28;20041;-39
2021/10/01 05:15:11;;;;;;;26.40;13.98;;;9.10;75.70;;;;;;5057657;28;20040;-37
2021/10/01 05:17:39;;;;;;;27.67;14.77;;;9.10;75.80;;;;;;5057806;28;20409;-37
2021/10/01 05:20:08;;;;;;;47.83;25.40;;;9.20;76.00;;;;;;5057888;28;20061;-37
2021/10/01 05:22:34;;;;;;;30.20;16.50;;;9.30;76.20;;;;;;5057330;28;20112;-39
2021/10/01 05:25:01;;;;;;;42.38;23.33;;;9.40;76.50;;;;;;5057398;28;20469;-37
2021/10/01 05:27:28;;;;;;;30.02;14.95;;;9.50;76.60;;;;;;5057436;28;20048;-37
2021/10/01 05:29:54;;;;;;;25.45;14.27;;;9.60;76.70;;;;;;5057479;28;20106;-37
2021/10/01 05:32:20;;;;;;;23.17;15.05;;;9.70;76.80;;;;;;5057269;28;20128;-37
2021/10/01 05:34:47;;;;;;;31.65;13.77;;;9.80;76.70;;;;;;5057600;28;20060;-37
2021/10/01 05:37:13;;;;;;;82.43;50.35;;;9.90;76.80;;;;;;5057071;28;20031;-37
2021/10/01 05:39:38;;;;;;;28.80;18.77;;;10.00;76.90;;;;;;5053999;28;20108;-39
2021/10/01 05:42:04;;;;;;;36.05;19.83;;;10.10;76.90;;;;;;5045906;28;20032;-40
2021/10/01 05:44:30;;;;;;;24.08;15.27;;;10.10;76.70;;;;;;5037280;28;20398;-39
2021/10/01 05:46:59;;;;;;;36.08;22.27;;;10.30;76.80;;;;;;5037111;28;20025;-39
2021/10/01 05:49:36;;;;;;;27.65;16.02;;;10.40;76.70;;;;;;5037054;28;20057;-37
2021/10/01 05:52:14;;;;;;;21.58;13.43;;;10.40;76.60;;;;;;5037145;28;20033;-36
2021/10/01 05:54:40;;;;;;;20.88;13.57;;;10.60;76.50;;;;;;5036989;28;20088;-37
2021/10/01 05:57:08;;;;;;;20.27;13.57;;;10.70;76.30;;;;;;5036731;28;20390;-39
2021/10/01 05:59:34;;;;;;;23.98;15.50;;;10.80;76.10;;;;;;5037150;28;20034;-39
2021/10/01 06:01:59;;;;;;;20.58;13.43;;;10.90;75.80;;;;;;5036753;28;20024;-37
2021/10/01 06:04:25;;;;;;;24.70;13.90;;;10.90;75.50;;;;;;5036799;28;20049;-40
2021/10/01 06:06:51;;;;;;;21.65;12.40;;;11.00;75.40;;;;;;5035838;28;20021;-40
2021/10/01 06:09:19;;;;;;;20.20;11.20;;;11.10;75.70;;;;;;5037117;28;20045;-39
2021/10/01 06:11:45;;;;;;;15.85;11.10;;;11.20;75.00;;;;;;5036420;28;20037;-39
2021/10/01 06:14:11;;;;;;;22.38;14.10;;;11.30;74.90;;;;;;5037080;28;20060;-40
2021/10/01 06:16:37;;;;;;;19.60;11.90;;;11.40;74.80;;;;;;5036501;28;20447;-38
2021/10/01 06:19:03;;;;;;;17.17;11.05;;;11.50;74.50;;;;;;5036540;28;20064;-37
2021/10/01 06:21:29;;;;;;;22.13;12.73;;;11.60;74.20;;;;;;5036484;28;20071;-37
2021/10/01 06:23:55;;;;;;;19.10;11.20;;;11.70;73.90;;;;;;5036741;28;20682;-37
2021/10/01 06:26:21;;;;;;;21.27;13.60;;;11.80;73.60;;;;;;5035889;28;20155;-40
2021/10/01 06:28:47;;;;;;;15.35;10.30;;;11.80;73.40;;;;;;5036761;28;20053;-39
2021/10/01 06:31:12;;;;;;;19.63;11.82;;;11.90;73.10;;;;;;5035969;28;20076;-40
2021/10/01 06:33:38;;;;;;;26.92;14.30;;;12.00;73.10;;;;;;5035955;28;20037;-40
2021/10/01 06:36:05;;;;;;;17.20;11.23;;;12.10;73.10;;;;;;5036221;28;20040;-37
2021/10/01 06:38:31;;;;;;;17.23;10.68;;;12.10;72.80;;;;;;5036800;28;20122;-37
2021/10/01 06:40:58;;;;;;;18.52;10.30;;;12.20;72.40;;;;;;5036033;28;20079;-40
2021/10/01 06:43:25;;;;;;;15.93;10.70;;;12.30;72.20;;;;;;5035308;28;20413;-37
2021/10/01 06:45:53;;;;;;;43.88;21.17;;;12.30;72.00;;;;;;5035632;28;20068;-37
2021/10/01 06:48:28;;;;;;;17.90;11.05;;;12.40;72.00;;;;;;5036356;28;20033;-39
2021/10/01 08:18:41;;;;;;;17.58;11.52;;;14.00;67.80;;;;;;5035457;28;20128;-37
2021/10/01 08:21:07;;;;;;;19.10;10.43;;;14.00;67.60;;;;;;5035054;28;20025;-38
2021/10/01 08:23:33;;;;;;;22.23;12.35;;;14.10;67.70;;;;;;5035533;28;20056;-41
2021/10/01 08:25:59;;;;;;;14.30;9.82;;;14.10;67.60;;;;;;5034207;28;20481;-37
2021/10/01 08:28:25;;;;;;;15.10;9.75;;;14.20;67.50;;;;;;5035316;28;20029;-39
2021/10/01 08:30:51;;;;;;;13.50;10.35;;;14.20;67.20;;;;;;5036017;28;20022;-37
2021/10/01 08:33:17;;;;;;;15.35;10.73;;;14.30;67.10;;;;;;5038675;28;20045;-39
2021/10/01 08:35:42;;;;;;;13.50;9.77;;;14.30;66.90;;;;;;5038630;28;20030;-40
2021/10/01 08:38:08;;;;;;;20.60;13.00;;;14.40;66.60;;;;;;5038719;28;20037;-40
2021/10/01 08:40:34;;;;;;;18.50;11.43;;;14.40;66.50;;;;;;5038104;28;20104;-39
2021/10/01 08:43:00;;;;;;;15.15;10.68;;;14.50;66.60;;;;;;5037195;28;20033;-36
2021/10/01 08:45:27;;;;;;;20.02;12.55;;;14.50;66.90;;;;;;5038243;28;20029;-37
2021/10/01 08:47:57;;;;;;;25.65;14.15;;;14.50;66.50;;;;;;5038290;28;20171;-40
2021/10/01 08:50:23;;;;;;;23.50;14.32;;;14.60;66.20;;;;;;5038328;28;20025;-36
2021/10/01 08:52:51;;;;;;;20.50;11.52;;;14.60;66.00;;;;;;5038085;28;20139;-39
2021/10/01 08:55:17;;;;;;;14.85;10.23;;;14.60;65.40;;;;;;5037373;28;20048;-39
2021/10/01 08:57:43;;;;;;;15.95;9.68;;;14.70;64.90;;;;;;5038159;28;20045;-38
2021/10/01 09:00:13;;;;;;;14.27;8.68;;;14.70;64.40;;;;;;5038015;28;20300;-38
2021/10/01 09:02:39;;;;;;;27.20;14.90;;;14.80;63.80;;;;;;5038205;28;20034;-38
2021/10/01 09:05:06;;;;;;;16.02;11.10;;;14.80;64.00;;;;;;5038081;28;20091;-37
2021/10/01 09:07:31;;;;;;;14.23;9.90;;;14.80;64.40;;;;;;5037656;28;20408;-37
2021/10/01 09:09:57;;;;;;;13.52;9.55;;;14.80;63.90;;;;;;5037887;28;20021;-38
2021/10/01 09:12:24;;;;;;;17.25;8.52;;;14.90;63.90;;;;;;5037716;28;20368;-38
2021/10/01 09:14:53;;;;;;;14.45;8.40;;;14.90;63.20;;;;;;5037733;28;20040;-38
2021/10/01 09:17:25;;;;;;;12.18;7.22;;;15.00;62.90;;;;;;5037695;28;20283;-40
2021/10/01 09:19:53;;;;;;;18.75;9.55;;;15.00;61.60;;;;;;5037578;28;20472;-38
2021/10/01 09:22:38;;;;;;;21.13;10.52;;;15.10;61.70;;;;;;5037530;28;20099;-40
2021/10/01 09:25:24;;;;;;;12.40;7.63;;;15.10;60.90;;;;;;5037732;28;20025;-40
2021/10/01 09:27:58;;;;;;;10.73;7.22;;;15.20;60.60;;;;;;5037683;28;20044;-39
2021/10/01 09:30:25;;;;;;;11.32;6.97;;;15.20;60.60;;;;;;5037577;28;20071;-39
2021/10/01 09:33:11;;;;;;;12.15;7.18;;;15.20;60.30;;;;;;5037374;28;20364;-40
2021/10/01 09:35:37;;;;;;;12.75;6.53;;;15.30;60.20;;;;;;5037439;28;20025;-41
2021/10/01 09:38:12;;;;;;;12.80;5.65;;;15.30;59.30;;;;;;5037162;28;20026;-40
2021/10/01 09:40:39;;;;;;;13.70;6.95;;;15.40;57.90;;;;;;5037160;28;20036;-41
2021/10/01 09:43:05;;;;;;;9.55;6.63;;;15.40;58.40;;;;;;5045328;28;20040;-41
2021/10/01 09:45:31;;;;;;;8.77;5.97;;;15.40;58.00;;;;;;5057093;28;20025;-36
2021/10/01 09:48:06;;;;;;;7.32;5.15;;;15.50;57.20;;;;;;5057416;28;20368;-39
2021/10/01 09:50:35;;;;;;;9.40;5.20;;;15.50;56.50;;;;;;5057254;28;20025;-40
2021/10/01 09:53:04;;;;;;;7.78;4.90;;;15.60;55.40;;;;;;5037276;28;20077;-38
2021/10/01 09:55:33;;;;;;;9.90;5.43;;;15.60;54.20;;;;;;5037012;28;20068;-41
2021/10/01 09:58:10;;;;;;;6.85;5.22;;;15.60;53.40;;;;;;5037073;28;20042;-41
2021/10/01 10:00:39;;;;;;;6.25;3.75;;;15.70;53.40;;;;;;5036930;28;20105;-37
2021/10/01 10:03:07;;;;;;;9.48;5.40;;;15.70;53.00;;;;;;5036805;28;20025;-38
2021/10/01 10:06:02;;;;;;;9.43;4.55;;;15.80;52.00;;;;;;5036409;28;20025;-38
2021/10/01 10:08:37;;;;;;;5.97;3.80;;;15.90;51.00;;;;;;5037088;28;20029;-38
2021/10/01 10:11:19;;;;;;;3.85;3.40;;;16.00;50.60;;;;;;5036702;28;20037;-37
2021/10/01 10:13:49;;;;;;;30.13;5.50;;;16.00;49.70;;;;;;5036942;28;20034;-38
2021/10/01 10:16:19;;;;;;;56.13;36.95;;;16.10;49.90;;;;;;5036791;28;20576;-38
2021/10/01 10:18:50;;;;;;;41.50;24.33;;;16.10;49.80;;;;;;5037002;28;20125;-38
2021/10/01 10:21:16;;;;;;;;;;;16.20;50.00;;;;;;5037013;28;20037;-37
2021/10/01 10:23:42;;;;;;;13.13;8.32;;;16.30;50.50;;;;;;5036822;28;20300;-38
2021/10/01 10:26:08;;;;;;;19.45;11.07;;;16.30;49.90;;;;;;5036028;28;20033;-41
2021/10/01 10:28:36;;;;;;;14.43;9.68;;;16.40;48.90;;;;;;5036727;28;20376;-41
2021/10/01 10:31:02;;;;;;;10.43;7.30;;;16.50;48.50;;;;;;5036189;28;20325;-41
2021/10/01 10:33:46;;;;;;;10.88;6.10;;;16.60;47.60;;;;;;5036731;28;20037;-40
2021/10/01 10:36:44;;;;;;;22.75;7.03;;;16.70;47.30;;;;;;5035542;28;20456;-37
2021/10/01 10:39:10;;;;;;;7.18;4.32;;;16.80;47.40;;;;;;5035861;28;20468;-41
2021/10/01 10:41:38;;;;;;;5.97;3.47;;;16.90;46.60;;;;;;5035735;28;20026;-37
2021/10/01 10:44:04;;;;;;;10.02;5.75;;;16.90;46.30;;;;;;5036148;28;20053;-38
2021/10/01 10:46:35;;;;;;;14.43;4.88;;;17.00;45.90;;;;;;5036090;28;20124;-37
2021/10/01 10:49:25;;;;;;;7.90;3.90;;;17.10;46.10;;;;;;5036120;28;20053;-38
2021/10/01 10:52:07;;;;;;;11.63;5.45;;;17.20;45.20;;;;;;5035354;28;20041;-41
2021/10/01 10:55:09;;;;;;;17.30;7.80;;;17.20;45.00;;;;;;5035327;28;20050;-37
2021/10/01 10:57:37;;;;;;;16.25;7.80;;;17.20;45.50;;;;;;5035651;28;20041;-41
2021/10/01 11:00:27;;;;;;;5.50;4.15;;;17.30;45.50;;;;;;5036089;28;20056;-42
2021/10/01 11:03:18;;;;;;;7.43;5.03;;;17.40;44.90;;;;;;5035673;28;20405;-40
2021/10/01 11:05:44;;;;;;;11.48;3.75;;;17.50;45.20;;;;;;5035524;28;20436;-41
2021/10/01 11:08:22;;;;;;;21.20;6.55;;;17.50;44.90;;;;;;5035856;28;20037;-37
2021/10/01 11:10:49;;;;;;;11.52;6.07;;;17.60;44.50;;;;;;5034578;28;20040;-38
2021/10/01 11:13:18;;;;;;;9.15;4.40;;;17.70;45.10;;;;;;5035491;28;20041;-41
2021/10/01 11:16:09;;;;;;;6.45;3.40;;;17.70;44.70;;;;;;5035533;28;20083;-38
2021/10/01 11:18:44;;;;;;;11.70;4.88;;;17.80;43.90;;;;;;5035720;28;20432;-41
2021/10/01 11:21:33;;;;;;;11.25;6.32;;;17.90;44.40;;;;;;5035422;28;20383;-37
2021/10/01 11:24:08;;;;;;;10.55;6.05;;;18.00;44.60;;;;;;5035136;28;20438;-39
2021/10/01 11:26:56;;;;;;;9.57;5.00;;;18.10;44.10;;;;;;5035206;28;20072;-37
2021/10/01 11:29:32;;;;;;;4.68;3.80;;;18.20;43.50;;;;;;5035469;28;20037;-37
2021/10/01 11:32:08;;;;;;;6.55;3.70;;;18.30;43.20;;;;;;5034773;28;20029;-37
2021/10/01 11:34:44;;;;;;;16.67;7.25;;;18.30;42.70;;;;;;5035190;28;20030;-37
2021/10/01 11:37:30;;;;;;;15.57;7.97;;;18.50;42.00;;;;;;5034679;28;20041;-37
2021/10/01 11:40:08;;;;;;;8.93;4.90;;;18.60;41.90;;;;;;5034809;28;20155;-41
2021/10/01 11:42:40;;;;;;;11.77;7.45;;;18.70;41.40;;;;;;5035194;28;20041;-38
2021/10/01 11:45:14;;;;;;;11.32;6.03;;;18.80;42.50;;;;;;5035547;28;20034;-37
2021/10/01 11:47:57;;;;;;;6.95;3.60;;;18.90;42.30;;;;;;5035087;28;20042;-37
2021/10/01 11:50:45;;;;;;;15.40;10.80;;;19.10;42.00;;;;;;5035116;28;20478;-37
2021/10/01 11:53:22;;;;;;;11.85;6.05;;;19.20;42.10;;;;;;5034870;28;20061;-38
2021/10/01 11:55:54;;;;;;;30.88;15.75;;;19.40;41.00;;;;;;5034752;28;20029;-38
2021/10/01 11:58:21;;;;;;;7.78;5.32;;;19.60;41.10;;;;;;5035102;28;20049;-38
2021/10/01 12:00:47;;;;;;;12.27;6.45;;;19.70;41.10;;;;;;5034823;28;20031;-41
2021/10/01 12:03:15;;;;;;;14.20;8.13;;;19.80;41.00;;;;;;5035040;28;20033;-37
2021/10/01 12:05:45;;;;;;;14.60;5.80;;;20.00;40.60;;;;;;5036355;28;20044;-41
2021/10/01 12:08:12;;;;;;;14.57;4.95;;;20.10;39.90;;;;;;5039405;28;20133;-41
2021/10/01 12:10:40;;;;;;;12.63;6.97;;;20.30;39.60;;;;;;5039384;28;20033;-41
2021/10/01 12:13:22;;;;;;;24.73;17.30;;;20.40;39.30;;;;;;5039085;28;20416;-38
2021/10/01 12:16:11;;;;;;;19.55;9.77;;;20.50;39.30;;;;;;5038853;28;20053;-40
2021/10/01 12:18:37;;;;;;;6.82;4.72;;;20.70;39.40;;;;;;5039338;28;20326;-42
2021/10/01 12:21:15;;;;;;;10.10;5.70;;;20.80;39.30;;;;;;5038385;28;20021;-41
2021/10/01 12:23:55;;;;;;;10.73;5.47;;;21.00;38.80;;;;;;5039016;28;20040;-41
2021/10/01 12:26:20;;;;;;;6.03;3.70;;;21.10;38.70;;;;;;5038277;28;20040;-41
2021/10/01 12:28:56;;;;;;;13.18;4.45;;;21.20;38.70;;;;;;5039000;28;20124;-41
2021/10/01 12:31:22;;;;;;;12.38;4.20;;;21.30;38.20;;;;;;5038902;28;20290;-42
2021/10/01 12:33:49;;;;;;;12.48;4.82;;;21.50;38.50;;;;;;5039132;28;20128;-38
2021/10/01 12:36:16;;;;;;;12.60;5.35;;;21.60;38.90;;;;;;5038678;28;20521;-38
2021/10/01 12:38:42;;;;;;;9.73;5.22;;;21.70;38.40;;;;;;5038915;28;20087;-41
2021/10/01 12:41:15;;;;;;;13.15;5.82;;;21.80;38.00;;;;;;5038017;28;20030;-38
2021/10/01 12:43:53;;;;;;;19.60;6.13;;;22.00;37.70;;;;;;5038562;28;20117;-37
2021/10/01 12:46:39;;;;;;;15.05;5.18;;;22.10;37.00;;;;;;5038349;28;20315;-37
2021/10/01 12:49:13;;;;;;;6.50;4.85;;;22.20;37.00;;;;;;5038433;28;20513;-40
2021/10/01 12:51:39;;;;;;;23.08;16.02;;;22.30;36.70;;;;;;5038272;28;20092;-40
2021/10/01 12:54:22;;;;;;;17.83;7.97;;;22.40;36.50;;;;;;5038134;28;20049;-41
2021/10/01 12:56:47;;;;;;;16.02;6.35;;;22.50;36.30;;;;;;5038048;28;20037;-37
2021/10/01 12:59:37;;;;;;;10.25;4.70;;;22.60;36.70;;;;;;5037017;28;20601;-39
2021/10/01 13:02:14;;;;;;;11.37;4.63;;;22.70;35.90;;;;;;5037647;28;20026;-38
2021/10/01 13:04:49;;;;;;;14.10;7.72;;;22.70;36.20;;;;;;5037831;28;20253;-40
2021/10/01 13:07:26;;;;;;;8.85;4.20;;;22.80;36.20;;;;;;5037088;28;20108;-38
2021/10/01 13:09:54;;;;;;;15.68;4.65;;;22.90;36.10;;;;;;5038128;28;20034;-37
2021/10/01 13:12:30;;;;;;;12.55;4.20;;;22.90;36.10;;;;;;5037539;28;20056;-38
2021/10/01 13:15:13;;;;;;;18.13;5.65;;;23.00;35.60;;;;;;5037625;28;20036;-39
2021/10/01 13:17:39;;;;;;;12.13;4.95;;;23.00;35.50;;;;;;5036801;28;20056;-40
2021/10/01 13:20:06;;;;;;;26.05;7.65;;;23.10;35.70;;;;;;5037756;28;20022;-39
2021/10/01 13:22:52;;;;;;;8.10;5.00;;;23.10;35.20;;;;;;5037863;28;20109;-37
2021/10/01 13:25:25;;;;;;;11.15;6.15;;;23.20;35.30;;;;;;5037678;28;20033;-37
2021/10/01 13:27:53;;;;;;;12.57;4.63;;;23.20;35.30;;;;;;5037370;28;20029;-37
2021/10/01 13:30:20;;;;;;;6.75;4.43;;;23.20;35.30;;;;;;5037736;28;20056;-38
2021/10/01 13:32:46;;;;;;;8.85;4.32;;;23.30;35.20;;;;;;5037566;28;20034;-38
2021/10/01 13:35:12;;;;;;;7.10;3.95;;;23.30;35.20;;;;;;5037608;28;20299;-39
2021/10/01 13:37:40;;;;;;;19.15;6.38;;;23.40;35.10;;;;;;5037507;28;20079;-38
2021/10/01 13:40:06;;;;;;;20.15;5.00;;;23.40;34.70;;;;;;5036969;28;20034;-39
2021/10/01 13:42:32;;;;;;;9.35;4.30;;;23.40;34.60;;;;;;5036988;28;20083;-40
2021/10/01 13:44:58;;;;;;;6.78;3.70;;;23.50;34.70;;;;;;5037516;28;20026;-37
2021/10/01 13:47:23;;;;;;;7.95;3.83;;;23.50;34.40;;;;;;5036516;28;20385;-38
2021/10/01 13:49:49;;;;;;;13.68;6.20;;;23.50;34.50;;;;;;5036970;28;20091;-38
2021/10/01 13:52:15;;;;;;;10.68;4.18;;;23.60;34.80;;;;;;5036978;28;20029;-38
2021/10/01 13:54:40;;;;;;;11.25;5.47;;;23.60;35.00;;;;;;5036970;28;20060;-38
2021/10/01 13:57:06;;;;;;;8.30;5.50;;;23.60;34.90;;;;;;5037076;28;20030;-38
2021/10/01 13:59:32;;;;;;;11.73;5.03;;;23.60;35.00;;;;;;5036976;28;20098;-39
2021/10/01 14:01:58;;;;;;;9.07;4.40;;;23.60;34.90;;;;;;5036420;28;20021;-37
2021/10/01 14:04:24;;;;;;;8.93;4.25;;;23.60;34.90;;;;;;5036980;28;20315;-38
2021/10/01 14:06:50;;;;;;;7.03;4.28;;;23.50;34.90;;;;;;5036847;28;20040;-42
2021/10/01 14:09:16;;;;;;;7.70;6.65;;;23.50;35.20;;;;;;5037231;28;20159;-39
2021/10/01 14:11:41;;;;;;;13.38;5.78;;;23.40;35.20;;;;;;5036638;28;20032;-38
2021/10/01 14:14:07;;;;;;;9.50;5.78;;;23.30;35.00;;;;;;5037185;28;20037;-38
2021/10/01 14:16:33;;;;;;;17.55;5.32;;;23.10;34.50;;;;;;5036734;28;20080;-38
2021/10/01 14:18:58;;;;;;;10.20;5.00;;;22.90;34.70;;;;;;5036460;28;20040;-38
2021/10/01 14:21:24;;;;;;;21.10;5.95;;;22.60;35.10;;;;;;5036498;28;20117;-38